createdAt,value
2022-11-27T00:04:26.289Z,39.50
2022-11-27T00:10:28.175Z,40.75
2022-11-27T00:16:33.245Z,37.78
2022-11-27T00:22:35.200Z,37.40
2022-11-27T00:28:38.395Z,29.98
2022-11-27T00:34:40.664Z,34.88
2022-11-27T00:40:42.710Z,29.45
2022-11-27T00:46:44.751Z,30.02
2022-11-27T00:52:46.755Z,25.05
2022-11-27T00:58:48.769Z,29.08
2022-11-27T01:04:50.800Z,33.13
2022-11-27T01:10:57.654Z,26.20
2022-11-27T01:17:00.239Z,31.00
2022-11-27T01:23:02.099Z,22.63
2022-11-27T01:29:04.018Z,27.45
2022-11-27T01:35:07.641Z,25.80
2022-11-27T01:41:18.829Z,33.17
2022-11-27T01:47:32.119Z,28.10
2022-11-27T01:53:34.462Z,28.13
2022-11-27T01:59:36.516Z,28.55
2022-11-27T02:05:38.601Z,27.50
2022-11-27T02:11:52.519Z,20.25
2022-11-27T02:18:07.243Z,26.42
2022-11-27T02:24:33.226Z,28.02
2022-11-27T02:30:41.535Z,31.48
2022-11-27T02:36:50.342Z,25.95
2022-11-27T02:43:16.687Z,27.20
2022-11-27T02:49:19.949Z,21.35
2022-11-27T02:55:26.362Z,25.92
2022-11-27T03:01:32.479Z,19.40
2022-11-27T03:08:08.837Z,21.02
2022-11-27T03:14:12.536Z,22.30
2022-11-27T03:20:23.013Z,25.98
2022-11-27T03:26:26.219Z,28.33
2022-11-27T03:32:30.512Z,31.42
2022-11-27T03:38:32.459Z,27.48
2022-11-27T03:45:17.370Z,26.52
2022-11-27T03:51:39.396Z,27.42
2022-11-27T03:58:04.260Z,33.00
2022-11-27T04:04:07.285Z,26.95
2022-11-27T04:10:10.764Z,30.23
2022-11-27T04:16:12.830Z,22.00
2022-11-27T04:22:14.698Z,30.88
2022-11-27T04:28:17.704Z,30.98
2022-11-27T04:34:19.673Z,26.98
2022-11-27T04:40:21.541Z,32.03
2022-11-27T04:46:24.238Z,35.42
2022-11-27T04:52:26.152Z,30.95
2022-11-27T04:58:27.984Z,29.25
2022-11-27T05:04:29.962Z,38.95
2022-11-27T05:10:32.254Z,37.70
2022-11-27T05:16:34.279Z,28.95
2022-11-27T05:22:36.675Z,37.92
2022-11-27T05:28:38.609Z,36.63
2022-11-27T05:34:40.657Z,32.60
2022-11-27T05:40:42.679Z,35.28
2022-11-27T05:46:45.001Z,38.03
2022-11-27T05:52:46.990Z,37.97
2022-11-27T05:58:49.589Z,30.00
2022-11-27T06:04:51.640Z,31.02
2022-11-27T06:10:53.544Z,39.35
2022-11-27T06:16:55.417Z,36.83
2022-11-27T06:22:57.805Z,24.60
2022-11-27T06:29:00.924Z,33.60
2022-11-27T06:35:02.934Z,37.33
2022-11-27T06:41:07.463Z,40.60
2022-11-27T06:47:09.476Z,30.48
2022-11-27T06:53:11.302Z,39.03
2022-11-27T06:59:16.110Z,33.55
2022-11-27T07:05:17.925Z,34.58
2022-11-27T07:11:23.502Z,39.50
2022-11-27T07:17:25.475Z,37.20
2022-11-27T07:23:27.400Z,36.15
2022-11-27T07:29:29.299Z,39.53
2022-11-27T07:35:31.114Z,34.10
2022-11-27T07:41:34.241Z,34.55
2022-11-27T07:47:36.522Z,38.05
2022-11-27T07:53:40.200Z,37.35
2022-11-27T07:59:47.127Z,33.97
2022-11-27T08:05:49.449Z,34.80
2022-11-27T08:11:51.222Z,36.05
2022-11-27T08:17:53.016Z,36.53
2022-11-27T08:23:54.884Z,36.75
2022-11-27T08:29:56.687Z,30.70
2022-11-27T08:35:58.807Z,31.60
2022-11-27T08:42:00.929Z,31.25
2022-11-27T08:48:02.762Z,30.90
2022-11-27T08:54:04.782Z,31.70
2022-11-27T09:00:07.651Z,26.42
2022-11-27T09:06:11.953Z,27.58
2022-11-27T09:12:13.837Z,32.05
2022-11-27T09:18:15.707Z,27.55
2022-11-27T09:24:17.573Z,26.58
2022-11-27T09:30:19.564Z,24.48
2022-11-27T09:36:24.553Z,28.15
2022-11-27T09:42:38.696Z,20.52
2022-11-27T09:48:42.626Z,25.00
2022-11-27T09:55:21.717Z,23.88
2022-11-27T10:01:49.151Z,20.77
2022-11-27T10:08:06.997Z,19.08
2022-11-27T10:14:09.107Z,20.77
2022-11-27T10:20:33.493Z,19.90
2022-11-27T10:26:46.219Z,21.45
2022-11-27T10:32:56.170Z,21.05
2022-11-27T10:39:00.469Z,18.67
2022-11-27T10:45:08.270Z,17.98
2022-11-27T10:51:36.030Z,14.85
2022-11-27T10:57:51.923Z,17.23
2022-11-27T11:04:36.307Z,16.38
2022-11-27T11:10:45.447Z,17.50
2022-11-27T11:16:47.628Z,14.95
2022-11-27T11:22:50.651Z,14.18
2022-11-27T11:28:56.450Z,16.27
2022-11-27T11:35:02.933Z,18.05
2022-11-27T11:41:07.267Z,18.83
2022-11-27T11:47:20.622Z,14.23
2022-11-27T11:53:31.293Z,19.67
2022-11-27T12:00:11.392Z,19.75
2022-11-27T12:06:32.053Z,13.50
2022-11-27T12:13:02.905Z,14.95
2022-11-27T12:19:31.373Z,11.52
2022-11-27T12:32:08.389Z,11.70
2022-11-27T12:38:13.308Z,13.60
2022-11-27T12:44:36.758Z,12.85
2022-11-27T12:50:48.484Z,13.25
2022-11-27T12:57:07.367Z,11.70
2022-11-27T13:03:30.707Z,14.43
2022-11-27T13:09:53.839Z,14.38
2022-11-27T13:16:04.272Z,10.93
2022-11-27T13:22:11.853Z,11.13
2022-11-27T13:28:44.472Z,13.02
2022-11-27T13:34:48.183Z,10.35
2022-11-27T13:40:56.056Z,15.65
2022-11-27T13:53:06.256Z,11.50
2022-11-27T13:59:22.141Z,11.73
2022-11-27T14:05:37.045Z,16.90
2022-11-27T14:11:44.276Z,14.40
2022-11-27T14:17:49.945Z,10.23
2022-11-27T14:23:53.726Z,14.75
2022-11-27T14:29:55.583Z,14.48
2022-11-27T14:36:00.039Z,10.10
2022-11-27T14:42:08.101Z,14.45
2022-11-27T14:48:19.672Z,20.10
2022-11-27T14:54:39.172Z,15.70
2022-11-27T15:00:56.517Z,14.55
2022-11-27T15:06:59.646Z,18.47
2022-11-27T15:13:03.565Z,19.60
2022-11-27T15:19:06.121Z,17.35
2022-11-27T15:25:28.104Z,17.17
2022-11-27T15:31:38.267Z,13.40
2022-11-27T15:37:41.897Z,13.85
2022-11-27T15:43:43.740Z,17.45
2022-11-27T15:49:46.336Z,20.05
2022-11-27T15:55:48.263Z,15.25
2022-11-27T16:01:50.184Z,15.15
2022-11-27T16:07:55.133Z,20.23
2022-11-27T16:13:57.816Z,17.98
2022-11-27T16:19:59.639Z,18.02
2022-11-27T16:26:01.634Z,14.07
2022-11-27T16:32:03.865Z,19.48
2022-11-27T16:38:06.148Z,17.45
2022-11-27T16:44:13.995Z,19.58
2022-11-27T16:50:15.946Z,16.13
2022-11-27T16:56:20.631Z,15.30
2022-11-27T17:02:23.366Z,16.50
2022-11-27T17:08:25.545Z,15.30
2022-11-27T17:14:27.931Z,15.02
2022-11-27T17:20:30.627Z,19.50
2022-11-27T17:26:33.874Z,14.23
2022-11-27T17:32:35.849Z,12.70
2022-11-27T17:38:37.727Z,15.52
2022-11-27T17:44:39.608Z,17.35
2022-11-27T17:50:41.705Z,12.23
2022-11-27T17:56:43.610Z,15.10
2022-11-27T18:02:46.061Z,16.52
2022-11-27T18:08:49.970Z,19.65
2022-11-27T18:14:56.515Z,27.33
2022-11-27T18:21:18.066Z,15.95
2022-11-27T18:27:20.584Z,17.52
2022-11-27T18:33:22.479Z,18.70
2022-11-27T18:39:24.312Z,16.48
2022-11-27T18:45:34.135Z,16.33
2022-11-27T18:51:38.435Z,16.40
2022-11-27T18:57:40.477Z,12.90
2022-11-27T19:03:43.143Z,14.93
2022-11-27T19:09:45.122Z,17.73
2022-11-27T19:15:47.353Z,13.98
2022-11-27T19:21:49.205Z,16.30
2022-11-27T19:27:51.114Z,14.30
2022-11-27T19:33:58.846Z,15.25
2022-11-27T19:46:03.150Z,15.77
2022-11-27T19:52:05.376Z,11.35
2022-11-27T19:58:07.867Z,13.20
2022-11-27T20:04:11.570Z,14.35
2022-11-27T20:10:13.545Z,19.92
2022-11-27T20:16:18.886Z,14.95
2022-11-27T20:22:21.014Z,15.52
2022-11-27T20:28:22.879Z,17.20
2022-11-27T20:34:25.630Z,14.52
2022-11-27T20:40:28.453Z,15.70
2022-11-27T20:46:32.459Z,21.58
2022-11-27T20:52:36.184Z,16.67
2022-11-27T20:58:40.084Z,14.82
2022-11-27T21:04:42.234Z,16.48
2022-11-27T21:10:44.166Z,16.05
2022-11-27T21:16:49.063Z,14.18
2022-11-27T21:22:51.374Z,12.25
2022-11-27T21:28:53.719Z,18.15
2022-11-27T21:34:55.565Z,11.00
2022-11-27T21:40:58.368Z,13.45
2022-11-27T21:47:00.462Z,14.00
2022-11-27T21:53:04.156Z,14.20
2022-11-27T21:59:13.454Z,15.85
2022-11-27T22:05:16.156Z,14.55
2022-11-27T22:11:21.565Z,14.85
2022-11-27T22:17:25.334Z,13.00
2022-11-27T22:23:28.026Z,15.75
2022-11-27T22:29:29.975Z,14.75
2022-11-27T22:35:32.850Z,17.40
2022-11-27T22:41:37.140Z,14.00
2022-11-27T22:47:39.039Z,12.57
2022-11-27T22:53:40.909Z,12.75
2022-11-27T22:59:43.515Z,15.90
2022-11-27T23:05:45.573Z,14.18
2022-11-27T23:11:48.013Z,12.25
2022-11-27T23:17:49.888Z,13.25
2022-11-27T23:23:51.825Z,19.13
2022-11-27T23:29:53.613Z,12.27
2022-11-27T23:36:00.101Z,14.98
2022-11-27T23:42:02.417Z,16.67
2022-11-27T23:48:04.360Z,11.68
2022-11-27T23:54:09.146Z,12.80
